sensor_id;sensor_type;location;lat;lon;timestamp;P1;durP1;ratioP1;P2;durP2;ratioP2
73919;SDS011;62266;53.348;-1.496;2023-04-23T00:02:02;23.87;;;15.03;;
73919;SDS011;62266;53.348;-1.496;2023-04-23T00:04:49;26.80;;;16.42;;
73919;SDS011;62266;53.348;-1.496;2023-04-23T00:07:35;26.95;;;16.73;;
73919;SDS011;62266;53.348;-1.496;2023-04-23T00:10:19;30.20;;;18.42;;
73919;SDS011;62266;53.348;-1.496;2023-04-23T00:13:03;30.55;;;18.38;;
73919;SDS011;62266;53.348;-1.496;2023-04-23T00:15:48;32.50;;;19.40;;
73919;SDS011;62266;53.348;-1.496;2023-04-23T00:18:32;32.25;;;19.15;;
73919;SDS011;62266;53.348;-1.496;2023-04-23T00:21:16;32.38;;;20.33;;
73919;SDS011;62266;53.348;-1.496;2023-04-23T00:24:00;31.10;;;19.33;;
73919;SDS011;62266;53.348;-1.496;2023-04-23T00:26:44;33.25;;;20.60;;
73919;SDS011;62266;53.348;-1.496;2023-04-23T00:29:28;29.97;;;18.10;;
73919;SDS011;62266;53.348;-1.496;2023-04-23T00:32:12;30.80;;;19.27;;
73919;SDS011;62266;53.348;-1.496;2023-04-23T00:34:57;35.60;;;20.77;;
73919;SDS011;62266;53.348;-1.496;2023-04-23T00:37:41;33.33;;;19.33;;
73919;SDS011;62266;53.348;-1.496;2023-04-23T00:40:25;33.67;;;20.80;;
73919;SDS011;62266;53.348;-1.496;2023-04-23T00:43:09;33.17;;;19.60;;
73919;SDS011;62266;53.348;-1.496;2023-04-23T00:45:54;34.42;;;20.30;;
73919;SDS011;62266;53.348;-1.496;2023-04-23T00:48:38;33.20;;;21.08;;
73919;SDS011;62266;53.348;-1.496;2023-04-23T00:51:22;32.13;;;20.13;;
73919;SDS011;62266;53.348;-1.496;2023-04-23T00:54:06;36.72;;;22.05;;
73919;SDS011;62266;53.348;-1.496;2023-04-23T00:56:51;31.57;;;20.60;;
73919;SDS011;62266;53.348;-1.496;2023-04-23T00:59:36;33.50;;;21.10;;
73919;SDS011;62266;53.348;-1.496;2023-04-23T01:02:20;36.13;;;22.02;;
73919;SDS011;62266;53.348;-1.496;2023-04-23T01:05:04;35.10;;;21.70;;
73919;SDS011;62266;53.348;-1.496;2023-04-23T01:07:50;35.40;;;21.65;;
73919;SDS011;62266;53.348;-1.496;2023-04-23T01:10:34;34.23;;;21.60;;
73919;SDS011;62266;53.348;-1.496;2023-04-23T01:13:18;35.53;;;22.00;;
73919;SDS011;62266;53.348;-1.496;2023-04-23T01:16:02;34.45;;;20.88;;
73919;SDS011;62266;53.348;-1.496;2023-04-23T01:18:46;39.28;;;22.75;;
73919;SDS011;62266;53.348;-1.496;2023-04-23T01:21:30;37.17;;;21.30;;
73919;SDS011;62266;53.348;-1.496;2023-04-23T01:24:15;34.90;;;21.43;;
73919;SDS011;62266;53.348;-1.496;2023-04-23T01:26:59;36.60;;;21.58;;
73919;SDS011;62266;53.348;-1.496;2023-04-23T01:29:44;37.83;;;23.45;;
73919;SDS011;62266;53.348;-1.496;2023-04-23T01:32:30;36.90;;;22.30;;
73919;SDS011;62266;53.348;-1.496;2023-04-23T01:35:15;39.83;;;23.00;;
73919;SDS011;62266;53.348;-1.496;2023-04-23T01:37:59;39.53;;;23.13;;
73919;SDS011;62266;53.348;-1.496;2023-04-23T01:40:45;37.97;;;23.25;;
73919;SDS011;62266;53.348;-1.496;2023-04-23T01:43:30;41.50;;;23.42;;
73919;SDS011;62266;53.348;-1.496;2023-04-23T01:49:06;42.15;;;23.83;;
73919;SDS011;62266;53.348;-1.496;2023-04-23T01:51:50;41.07;;;23.57;;
73919;SDS011;62266;53.348;-1.496;2023-04-23T01:54:34;44.70;;;26.00;;
73919;SDS011;62266;53.348;-1.496;2023-04-23T01:57:18;44.90;;;24.58;;
73919;SDS011;62266;53.348;-1.496;2023-04-23T02:00:07;43.97;;;24.73;;
73919;SDS011;62266;53.348;-1.496;2023-04-23T02:02:57;46.47;;;25.92;;
73919;SDS011;62266;53.348;-1.496;2023-04-23T02:05:41;41.40;;;24.47;;
73919;SDS011;62266;53.348;-1.496;2023-04-23T02:08:26;46.92;;;25.38;;
73919;SDS011;62266;53.348;-1.496;2023-04-23T02:11:10;49.90;;;26.23;;
73919;SDS011;62266;53.348;-1.496;2023-04-23T02:13:54;45.80;;;24.63;;
73919;SDS011;62266;53.348;-1.496;2023-04-23T02:16:38;47.13;;;25.67;;
73919;SDS011;62266;53.348;-1.496;2023-04-23T02:19:22;46.53;;;26.17;;
73919;SDS011;62266;53.348;-1.496;2023-04-23T02:22:06;44.88;;;24.00;;
73919;SDS011;62266;53.348;-1.496;2023-04-23T02:24:53;44.50;;;24.88;;
73919;SDS011;62266;53.348;-1.496;2023-04-23T02:27:37;41.50;;;24.90;;
73919;SDS011;62266;53.348;-1.496;2023-04-23T02:30:21;45.90;;;25.00;;
73919;SDS011;62266;53.348;-1.496;2023-04-23T02:33:05;43.77;;;24.73;;
73919;SDS011;62266;53.348;-1.496;2023-04-23T02:35:49;41.70;;;23.85;;
73919;SDS011;62266;53.348;-1.496;2023-04-23T02:38:33;39.50;;;23.73;;
73919;SDS011;62266;53.348;-1.496;2023-04-23T02:41:17;39.20;;;23.27;;
73919;SDS011;62266;53.348;-1.496;2023-04-23T02:44:01;43.13;;;24.38;;
73919;SDS011;62266;53.348;-1.496;2023-04-23T02:46:45;39.63;;;23.63;;
73919;SDS011;62266;53.348;-1.496;2023-04-23T02:49:30;36.58;;;22.23;;
73919;SDS011;62266;53.348;-1.496;2023-04-23T02:52:14;36.63;;;21.88;;
73919;SDS011;62266;53.348;-1.496;2023-04-23T02:54:58;33.72;;;20.95;;
73919;SDS011;62266;53.348;-1.496;2023-04-23T02:57:44;33.38;;;19.42;;
73919;SDS011;62266;53.348;-1.496;2023-04-23T03:00:28;34.00;;;20.03;;
73919;SDS011;62266;53.348;-1.496;2023-04-23T03:03:12;34.15;;;21.00;;
73919;SDS011;62266;53.348;-1.496;2023-04-23T03:05:57;36.13;;;21.25;;
73919;SDS011;62266;53.348;-1.496;2023-04-23T03:08:42;35.20;;;20.92;;
73919;SDS011;62266;53.348;-1.496;2023-04-23T03:11:26;34.17;;;20.55;;
73919;SDS011;62266;53.348;-1.496;2023-04-23T03:14:10;35.30;;;20.13;;
73919;SDS011;62266;53.348;-1.496;2023-04-23T03:16:54;35.83;;;21.05;;
73919;SDS011;62266;53.348;-1.496;2023-04-23T03:19:38;36.25;;;20.52;;
73919;SDS011;62266;53.348;-1.496;2023-04-23T03:22:22;35.17;;;19.67;;
73919;SDS011;62266;53.348;-1.496;2023-04-23T03:25:06;34.22;;;20.33;;
73919;SDS011;62266;53.348;-1.496;2023-04-23T03:27:52;33.30;;;20.97;;
73919;SDS011;62266;53.348;-1.496;2023-04-23T03:30:36;37.42;;;21.58;;
73919;SDS011;62266;53.348;-1.496;2023-04-23T03:33:20;36.95;;;22.80;;
73919;SDS011;62266;53.348;-1.496;2023-04-23T03:36:04;41.28;;;21.30;;
73919;SDS011;62266;53.348;-1.496;2023-04-23T03:38:48;40.20;;;24.00;;
73919;SDS011;62266;53.348;-1.496;2023-04-23T03:41:32;39.57;;;23.63;;
73919;SDS011;62266;53.348;-1.496;2023-04-23T03:44:16;40.00;;;22.25;;
73919;SDS011;62266;53.348;-1.496;2023-04-23T03:47:00;39.50;;;23.27;;
73919;SDS011;62266;53.348;-1.496;2023-04-23T03:49:44;38.60;;;22.40;;
73919;SDS011;62266;53.348;-1.496;2023-04-23T03:52:28;39.05;;;22.55;;
73919;SDS011;62266;53.348;-1.496;2023-04-23T03:55:13;40.53;;;23.03;;
73919;SDS011;62266;53.348;-1.496;2023-04-23T03:57:57;38.35;;;21.85;;
73919;SDS011;62266;53.348;-1.496;2023-04-23T04:00:44;35.70;;;20.88;;
73919;SDS011;62266;53.348;-1.496;2023-04-23T04:03:28;39.58;;;22.58;;
73919;SDS011;62266;53.348;-1.496;2023-04-23T04:06:12;41.38;;;23.48;;
73919;SDS011;62266;53.348;-1.496;2023-04-23T04:08:56;38.53;;;22.40;;
73919;SDS011;62266;53.348;-1.496;2023-04-23T04:11:40;38.78;;;22.08;;
73919;SDS011;62266;53.348;-1.496;2023-04-23T04:14:24;34.25;;;21.15;;
73919;SDS011;62266;53.348;-1.496;2023-04-23T04:17:08;37.58;;;22.27;;
73919;SDS011;62266;53.348;-1.496;2023-04-23T04:19:53;38.88;;;21.75;;
73919;SDS011;62266;53.348;-1.496;2023-04-23T04:22:37;41.50;;;22.83;;
73919;SDS011;62266;53.348;-1.496;2023-04-23T04:25:21;37.17;;;20.98;;
73919;SDS011;62266;53.348;-1.496;2023-04-23T04:28:06;42.95;;;22.70;;
73919;SDS011;62266;53.348;-1.496;2023-04-23T04:30:54;46.85;;;23.73;;
73919;SDS011;62266;53.348;-1.496;2023-04-23T04:33:40;40.38;;;22.67;;
73919;SDS011;62266;53.348;-1.496;2023-04-23T04:36:24;41.27;;;23.33;;
73919;SDS011;62266;53.348;-1.496;2023-04-23T04:39:09;42.40;;;23.52;;
73919;SDS011;62266;53.348;-1.496;2023-04-23T04:41:53;43.10;;;22.38;;
73919;SDS011;62266;53.348;-1.496;2023-04-23T04:44:38;42.83;;;22.25;;
73919;SDS011;62266;53.348;-1.496;2023-04-23T04:47:22;45.50;;;24.52;;
73919;SDS011;62266;53.348;-1.496;2023-04-23T04:50:06;44.70;;;23.33;;
73919;SDS011;62266;53.348;-1.496;2023-04-23T04:52:50;45.15;;;23.65;;
73919;SDS011;62266;53.348;-1.496;2023-04-23T04:55:34;45.30;;;23.67;;
73919;SDS011;62266;53.348;-1.496;2023-04-23T04:58:18;45.65;;;24.00;;
73919;SDS011;62266;53.348;-1.496;2023-04-23T05:01:02;46.13;;;23.02;;
73919;SDS011;62266;53.348;-1.496;2023-04-23T05:03:48;43.27;;;23.60;;
73919;SDS011;62266;53.348;-1.496;2023-04-23T05:06:32;47.28;;;23.40;;
73919;SDS011;62266;53.348;-1.496;2023-04-23T05:09:16;44.75;;;23.88;;
73919;SDS011;62266;53.348;-1.496;2023-04-23T05:12:00;41.67;;;22.77;;
73919;SDS011;62266;53.348;-1.496;2023-04-23T05:14:44;46.00;;;25.08;;
73919;SDS011;62266;53.348;-1.496;2023-04-23T05:17:29;42.90;;;22.90;;
73919;SDS011;62266;53.348;-1.496;2023-04-23T05:20:13;44.22;;;24.63;;
73919;SDS011;62266;53.348;-1.496;2023-04-23T05:22:58;43.80;;;23.02;;
73919;SDS011;62266;53.348;-1.496;2023-04-23T05:25:42;44.38;;;25.05;;
73919;SDS011;62266;53.348;-1.496;2023-04-23T05:28:26;46.80;;;24.75;;
73919;SDS011;62266;53.348;-1.496;2023-04-23T05:31:10;43.03;;;23.27;;
73919;SDS011;62266;53.348;-1.496;2023-04-23T05:33:54;47.97;;;24.20;;
73919;SDS011;62266;53.348;-1.496;2023-04-23T05:36:38;44.58;;;24.17;;
73919;SDS011;62266;53.348;-1.496;2023-04-23T05:39:26;45.03;;;23.05;;
73919;SDS011;62266;53.348;-1.496;2023-04-23T05:42:10;44.45;;;24.58;;
73919;SDS011;62266;53.348;-1.496;2023-04-23T05:44:55;44.63;;;23.90;;
73919;SDS011;62266;53.348;-1.496;2023-04-23T05:47:39;46.67;;;24.65;;
73919;SDS011;62266;53.348;-1.496;2023-04-23T05:50:23;41.83;;;22.80;;
73919;SDS011;62266;53.348;-1.496;2023-04-23T05:53:07;42.05;;;23.15;;
73919;SDS011;62266;53.348;-1.496;2023-04-23T05:55:51;39.53;;;22.52;;
73919;SDS011;62266;53.348;-1.496;2023-04-23T05:58:35;39.47;;;22.33;;
73919;SDS011;62266;53.348;-1.496;2023-04-23T06:01:21;37.45;;;21.27;;
73919;SDS011;62266;53.348;-1.496;2023-04-23T06:04:06;38.65;;;22.63;;
73919;SDS011;62266;53.348;-1.496;2023-04-23T06:06:50;37.20;;;21.60;;
73919;SDS011;62266;53.348;-1.496;2023-04-23T06:09:34;39.40;;;22.17;;
73919;SDS011;62266;53.348;-1.496;2023-04-23T06:12:19;39.57;;;22.73;;
73919;SDS011;62266;53.348;-1.496;2023-04-23T06:15:03;39.70;;;22.70;;
73919;SDS011;62266;53.348;-1.496;2023-04-23T06:17:49;39.47;;;22.92;;
73919;SDS011;62266;53.348;-1.496;2023-04-23T06:20:33;39.38;;;21.63;;
73919;SDS011;62266;53.348;-1.496;2023-04-23T06:23:17;39.33;;;22.40;;
73919;SDS011;62266;53.348;-1.496;2023-04-23T06:26:01;36.77;;;21.00;;
73919;SDS011;62266;53.348;-1.496;2023-04-23T06:28:46;32.38;;;19.35;;
73919;SDS011;62266;53.348;-1.496;2023-04-23T06:31:30;33.55;;;19.15;;
73919;SDS011;62266;53.348;-1.496;2023-04-23T06:34:15;33.67;;;18.55;;
73919;SDS011;62266;53.348;-1.496;2023-04-23T06:37:00;34.40;;;19.48;;
73919;SDS011;62266;53.348;-1.496;2023-04-23T06:39:45;35.03;;;18.73;;
73919;SDS011;62266;53.348;-1.496;2023-04-23T06:42:33;39.60;;;21.25;;
73919;SDS011;62266;53.348;-1.496;2023-04-23T06:45:18;35.30;;;19.52;;
73919;SDS011;62266;53.348;-1.496;2023-04-23T06:48:02;34.65;;;19.67;;
73919;SDS011;62266;53.348;-1.496;2023-04-23T06:50:47;34.58;;;19.85;;
73919;SDS011;62266;53.348;-1.496;2023-04-23T06:53:31;31.17;;;19.10;;
73919;SDS011;62266;53.348;-1.496;2023-04-23T06:56:16;33.92;;;19.45;;
73919;SDS011;62266;53.348;-1.496;2023-04-23T06:59:00;36.67;;;20.17;;
73919;SDS011;62266;53.348;-1.496;2023-04-23T07:01:45;35.25;;;19.75;;
73919;SDS011;62266;53.348;-1.496;2023-04-23T07:04:29;36.63;;;20.50;;
73919;SDS011;62266;53.348;-1.496;2023-04-23T07:07:13;36.67;;;22.23;;
73919;SDS011;62266;53.348;-1.496;2023-04-23T07:09:57;34.90;;;20.25;;
73919;SDS011;62266;53.348;-1.496;2023-04-23T07:12:41;37.67;;;20.40;;
73919;SDS011;62266;53.348;-1.496;2023-04-23T07:15:25;34.83;;;20.58;;
73919;SDS011;62266;53.348;-1.496;2023-04-23T07:18:09;34.25;;;20.65;;
73919;SDS011;62266;53.348;-1.496;2023-04-23T07:20:53;32.17;;;19.63;;
73919;SDS011;62266;53.348;-1.496;2023-04-23T07:23:37;34.17;;;19.65;;
73919;SDS011;62266;53.348;-1.496;2023-04-23T07:26:21;31.30;;;18.20;;
73919;SDS011;62266;53.348;-1.496;2023-04-23T07:29:06;32.20;;;18.95;;
73919;SDS011;62266;53.348;-1.496;2023-04-23T07:31:53;30.83;;;18.90;;
73919;SDS011;62266;53.348;-1.496;2023-04-23T07:34:37;31.00;;;17.67;;
73919;SDS011;62266;53.348;-1.496;2023-04-23T07:37:21;29.17;;;17.60;;
73919;SDS011;62266;53.348;-1.496;2023-04-23T07:40:05;29.55;;;17.13;;
73919;SDS011;62266;53.348;-1.496;2023-04-23T07:42:51;28.17;;;16.52;;
73919;SDS011;62266;53.348;-1.496;2023-04-23T07:45:35;27.15;;;16.58;;
73919;SDS011;62266;53.348;-1.496;2023-04-23T07:48:19;25.67;;;15.83;;
73919;SDS011;62266;53.348;-1.496;2023-04-23T07:51:03;28.15;;;17.17;;
73919;SDS011;62266;53.348;-1.496;2023-04-23T07:53:49;28.05;;;15.93;;
73919;SDS011;62266;53.348;-1.496;2023-04-23T07:56:35;25.38;;;16.17;;
73919;SDS011;62266;53.348;-1.496;2023-04-23T07:59:19;25.20;;;15.77;;
73919;SDS011;62266;53.348;-1.496;2023-04-23T08:02:03;27.13;;;16.63;;
73919;SDS011;62266;53.348;-1.496;2023-04-23T08:04:48;24.45;;;14.77;;
73919;SDS011;62266;53.348;-1.496;2023-04-23T08:07:32;22.73;;;14.43;;
73919;SDS011;62266;53.348;-1.496;2023-04-23T08:10:17;23.65;;;14.48;;
73919;SDS011;62266;53.348;-1.496;2023-04-23T08:15:44;23.33;;;14.83;;
73919;SDS011;62266;53.348;-1.496;2023-04-23T08:18:29;21.35;;;14.55;;
73919;SDS011;62266;53.348;-1.496;2023-04-23T08:21:13;23.00;;;14.65;;
73919;SDS011;62266;53.348;-1.496;2023-04-23T08:23:57;21.33;;;14.20;;
73919;SDS011;62266;53.348;-1.496;2023-04-23T08:26:41;20.55;;;13.48;;
73919;SDS011;62266;53.348;-1.496;2023-04-23T08:29:25;25.47;;;13.57;;
73919;SDS011;62266;53.348;-1.496;2023-04-23T08:32:09;21.98;;;13.70;;
73919;SDS011;62266;53.348;-1.496;2023-04-23T08:34:53;21.38;;;13.43;;
73919;SDS011;62266;53.348;-1.496;2023-04-23T08:37:38;19.92;;;12.63;;
73919;SDS011;62266;53.348;-1.496;2023-04-23T08:40:22;18.90;;;12.70;;
73919;SDS011;62266;53.348;-1.496;2023-04-23T08:43:18;19.70;;;12.57;;
73919;SDS011;62266;53.348;-1.496;2023-04-23T08:46:03;19.80;;;12.95;;
73919;SDS011;62266;53.348;-1.496;2023-04-23T08:48:47;19.65;;;11.82;;
73919;SDS011;62266;53.348;-1.496;2023-04-23T08:51:36;20.98;;;13.18;;
73919;SDS011;62266;53.348;-1.496;2023-04-23T08:54:25;21.38;;;12.63;;
73919;SDS011;62266;53.348;-1.496;2023-04-23T08:57:10;20.40;;;12.97;;
73919;SDS011;62266;53.348;-1.496;2023-04-23T08:59:55;21.73;;;13.18;;
73919;SDS011;62266;53.348;-1.496;2023-04-23T09:02:40;20.65;;;13.20;;
73919;SDS011;62266;53.348;-1.496;2023-04-23T09:05:25;19.83;;;12.93;;
73919;SDS011;62266;53.348;-1.496;2023-04-23T09:08:10;19.75;;;13.15;;
73919;SDS011;62266;53.348;-1.496;2023-04-23T09:10:54;24.23;;;14.50;;
73919;SDS011;62266;53.348;-1.496;2023-04-23T09:13:40;21.05;;;13.15;;
73919;SDS011;62266;53.348;-1.496;2023-04-23T09:16:25;23.08;;;13.82;;
73919;SDS011;62266;53.348;-1.496;2023-04-23T09:19:09;22.63;;;14.63;;
73919;SDS011;62266;53.348;-1.496;2023-04-23T09:21:53;22.90;;;14.65;;
73919;SDS011;62266;53.348;-1.496;2023-04-23T09:24:41;22.23;;;13.70;;
73919;SDS011;62266;53.348;-1.496;2023-04-23T09:27:28;23.90;;;15.07;;
73919;SDS011;62266;53.348;-1.496;2023-04-23T09:30:13;24.05;;;14.85;;
73919;SDS011;62266;53.348;-1.496;2023-04-23T09:32:57;20.90;;;13.82;;
73919;SDS011;62266;53.348;-1.496;2023-04-23T09:35:41;22.73;;;14.60;;
73919;SDS011;62266;53.348;-1.496;2023-04-23T09:38:25;22.43;;;14.73;;
73919;SDS011;62266;53.348;-1.496;2023-04-23T09:41:22;22.40;;;14.38;;
73919;SDS011;62266;53.348;-1.496;2023-04-23T09:44:07;24.88;;;15.38;;
73919;SDS011;62266;53.348;-1.496;2023-04-23T09:46:52;29.25;;;16.15;;
73919;SDS011;62266;53.348;-1.496;2023-04-23T09:49:45;24.20;;;14.98;;
73919;SDS011;62266;53.348;-1.496;2023-04-23T09:52:31;22.87;;;15.13;;
73919;SDS011;62266;53.348;-1.496;2023-04-23T09:55:16;24.83;;;15.30;;
73919;SDS011;62266;53.348;-1.496;2023-04-23T09:58:11;22.88;;;15.00;;
73919;SDS011;62266;53.348;-1.496;2023-04-23T10:01:07;24.25;;;15.55;;
73919;SDS011;62266;53.348;-1.496;2023-04-23T10:03:52;21.95;;;14.77;;
73919;SDS011;62266;53.348;-1.496;2023-04-23T10:06:36;23.97;;;14.77;;
73919;SDS011;62266;53.348;-1.496;2023-04-23T10:09:20;24.65;;;15.73;;
73919;SDS011;62266;53.348;-1.496;2023-04-23T10:12:07;22.98;;;14.95;;
73919;SDS011;62266;53.348;-1.496;2023-04-23T10:14:52;23.13;;;14.68;;
73919;SDS011;62266;53.348;-1.496;2023-04-23T10:17:40;23.58;;;14.10;;
73919;SDS011;62266;53.348;-1.496;2023-04-23T10:20:24;25.33;;;14.93;;
73919;SDS011;62266;53.348;-1.496;2023-04-23T10:23:09;23.30;;;14.25;;
73919;SDS011;62266;53.348;-1.496;2023-04-23T10:25:54;22.65;;;14.82;;
73919;SDS011;62266;53.348;-1.496;2023-04-23T10:28:39;22.80;;;15.27;;
73919;SDS011;62266;53.348;-1.496;2023-04-23T10:31:23;25.23;;;15.07;;
73919;SDS011;62266;53.348;-1.496;2023-04-23T10:34:09;23.30;;;15.50;;
73919;SDS011;62266;53.348;-1.496;2023-04-23T10:36:53;24.73;;;16.23;;
73919;SDS011;62266;53.348;-1.496;2023-04-23T10:39:39;26.35;;;15.98;;
73919;SDS011;62266;53.348;-1.496;2023-04-23T10:42:26;24.90;;;15.50;;
73919;SDS011;62266;53.348;-1.496;2023-04-23T10:45:14;24.17;;;15.02;;
73919;SDS011;62266;53.348;-1.496;2023-04-23T10:47:59;26.20;;;16.07;;
73919;SDS011;62266;53.348;-1.496;2023-04-23T10:50:43;26.65;;;16.17;;
73919;SDS011;62266;53.348;-1.496;2023-04-23T10:53:30;25.23;;;15.00;;
73919;SDS011;62266;53.348;-1.496;2023-04-23T10:56:14;30.00;;;15.90;;
73919;SDS011;62266;53.348;-1.496;2023-04-23T10:58:58;24.45;;;15.25;;
73919;SDS011;62266;53.348;-1.496;2023-04-23T11:01:44;25.40;;;15.17;;
73919;SDS011;62266;53.348;-1.496;2023-04-23T11:04:33;23.20;;;14.82;;
73919;SDS011;62266;53.348;-1.496;2023-04-23T11:07:18;23.15;;;14.40;;
73919;SDS011;62266;53.348;-1.496;2023-04-23T11:10:12;21.60;;;14.70;;
73919;SDS011;62266;53.348;-1.496;2023-04-23T11:12:56;23.38;;;14.68;;
73919;SDS011;62266;53.348;-1.496;2023-04-23T11:15:40;25.67;;;14.97;;
73919;SDS011;62266;53.348;-1.496;2023-04-23T11:18:25;23.25;;;15.27;;
73919;SDS011;62266;53.348;-1.496;2023-04-23T11:21:10;23.60;;;14.73;;
73919;SDS011;62266;53.348;-1.496;2023-04-23T11:23:54;22.75;;;14.07;;
73919;SDS011;62266;53.348;-1.496;2023-04-23T11:26:38;22.40;;;14.82;;
73919;SDS011;62266;53.348;-1.496;2023-04-23T11:29:26;20.90;;;13.37;;
73919;SDS011;62266;53.348;-1.496;2023-04-23T11:32:11;21.42;;;11.98;;
73919;SDS011;62266;53.348;-1.496;2023-04-23T11:34:56;18.17;;;12.10;;
73919;SDS011;62266;53.348;-1.496;2023-04-23T11:37:43;17.60;;;11.93;;
73919;SDS011;62266;53.348;-1.496;2023-04-23T11:40:28;18.27;;;12.07;;
73919;SDS011;62266;53.348;-1.496;2023-04-23T11:43:17;16.73;;;11.33;;
73919;SDS011;62266;53.348;-1.496;2023-04-23T11:46:01;18.45;;;11.95;;
73919;SDS011;62266;53.348;-1.496;2023-04-23T11:48:47;18.85;;;12.10;;
73919;SDS011;62266;53.348;-1.496;2023-04-23T11:51:31;18.48;;;11.73;;
73919;SDS011;62266;53.348;-1.496;2023-04-23T11:54:15;18.23;;;12.32;;
73919;SDS011;62266;53.348;-1.496;2023-04-23T11:56:59;18.60;;;12.07;;
73919;SDS011;62266;53.348;-1.496;2023-04-23T11:59:43;18.95;;;11.90;;
73919;SDS011;62266;53.348;-1.496;2023-04-23T12:02:28;18.08;;;12.05;;
73919;SDS011;62266;53.348;-1.496;2023-04-23T12:05:12;18.13;;;12.13;;
73919;SDS011;62266;53.348;-1.496;2023-04-23T12:08:09;16.70;;;11.00;;
73919;SDS011;62266;53.348;-1.496;2023-04-23T12:10:53;19.83;;;11.57;;
73919;SDS011;62266;53.348;-1.496;2023-04-23T12:13:42;20.20;;;11.93;;
73919;SDS011;62266;53.348;-1.496;2023-04-23T12:16:34;17.60;;;11.23;;
73919;SDS011;62266;53.348;-1.496;2023-04-23T12:19:28;22.00;;;12.25;;
73919;SDS011;62266;53.348;-1.496;2023-04-23T12:22:13;18.67;;;12.55;;
73919;SDS011;62266;53.348;-1.496;2023-04-23T12:24:58;19.33;;;11.83;;
73919;SDS011;62266;53.348;-1.496;2023-04-23T12:27:45;18.60;;;11.50;;
73919;SDS011;62266;53.348;-1.496;2023-04-23T12:30:30;19.85;;;12.27;;
73919;SDS011;62266;53.348;-1.496;2023-04-23T12:33:15;18.20;;;12.48;;
73919;SDS011;62266;53.348;-1.496;2023-04-23T12:35:59;20.35;;;12.90;;
73919;SDS011;62266;53.348;-1.496;2023-04-23T12:38:43;20.10;;;12.90;;
73919;SDS011;62266;53.348;-1.496;2023-04-23T12:41:27;20.88;;;12.90;;
73919;SDS011;62266;53.348;-1.496;2023-04-23T12:44:11;19.10;;;11.57;;
73919;SDS011;62266;53.348;-1.496;2023-04-23T12:46:56;15.43;;;10.38;;
73919;SDS011;62266;53.348;-1.496;2023-04-23T12:49:41;19.70;;;11.13;;
73919;SDS011;62266;53.348;-1.496;2023-04-23T12:52:26;17.03;;;9.83;;
73919;SDS011;62266;53.348;-1.496;2023-04-23T12:55:11;15.18;;;9.98;;
73919;SDS011;62266;53.348;-1.496;2023-04-23T12:57:55;15.73;;;10.10;;
73919;SDS011;62266;53.348;-1.496;2023-04-23T13:08:51;16.08;;;9.88;;
73919;SDS011;62266;53.348;-1.496;2023-04-23T13:11:37;18.67;;;9.98;;
73919;SDS011;62266;53.348;-1.496;2023-04-23T13:14:22;15.38;;;9.88;;
73919;SDS011;62266;53.348;-1.496;2023-04-23T13:17:06;16.92;;;10.13;;
73919;SDS011;62266;53.348;-1.496;2023-04-23T13:19:52;16.40;;;9.70;;
73919;SDS011;62266;53.348;-1.496;2023-04-23T13:22:38;16.55;;;9.98;;
73919;SDS011;62266;53.348;-1.496;2023-04-23T13:25:22;17.55;;;9.05;;
73919;SDS011;62266;53.348;-1.496;2023-04-23T13:28:06;16.00;;;9.82;;
73919;SDS011;62266;53.348;-1.496;2023-04-23T13:30:50;16.42;;;8.70;;
73919;SDS011;62266;53.348;-1.496;2023-04-23T13:33:34;14.87;;;9.53;;
73919;SDS011;62266;53.348;-1.496;2023-04-23T13:36:19;15.95;;;9.35;;
73919;SDS011;62266;53.348;-1.496;2023-04-23T13:39:03;14.20;;;9.23;;
73919;SDS011;62266;53.348;-1.496;2023-04-23T13:41:47;15.75;;;9.50;;
73919;SDS011;62266;53.348;-1.496;2023-04-23T13:44:31;15.50;;;9.57;;
73919;SDS011;62266;53.348;-1.496;2023-04-23T13:47:16;15.40;;;9.57;;
73919;SDS011;62266;53.348;-1.496;2023-04-23T13:50:00;17.90;;;9.82;;
73919;SDS011;62266;53.348;-1.496;2023-04-23T13:52:48;16.83;;;10.25;;
73919;SDS011;62266;53.348;-1.496;2023-04-23T13:55:32;15.65;;;9.90;;
73919;SDS011;62266;53.348;-1.496;2023-04-23T13:58:16;14.05;;;8.98;;
73919;SDS011;62266;53.348;-1.496;2023-04-23T14:01:00;15.57;;;9.93;;
73919;SDS011;62266;53.348;-1.496;2023-04-23T14:03:44;16.05;;;9.68;;
73919;SDS011;62266;53.348;-1.496;2023-04-23T14:06:30;14.85;;;10.23;;
73919;SDS011;62266;53.348;-1.496;2023-04-23T14:09:14;15.38;;;10.40;;
73919;SDS011;62266;53.348;-1.496;2023-04-23T14:11:59;15.35;;;10.32;;
73919;SDS011;62266;53.348;-1.496;2023-04-23T14:14:44;16.90;;;10.67;;
73919;SDS011;62266;53.348;-1.496;2023-04-23T14:17:28;18.73;;;11.10;;
73919;SDS011;62266;53.348;-1.496;2023-04-23T14:20:12;15.35;;;9.90;;
73919;SDS011;62266;53.348;-1.496;2023-04-23T14:23:09;18.17;;;11.23;;
73919;SDS011;62266;53.348;-1.496;2023-04-23T14:26:14;14.38;;;9.98;;
73919;SDS011;62266;53.348;-1.496;2023-04-23T14:29:08;14.93;;;10.13;;
73919;SDS011;62266;53.348;-1.496;2023-04-23T14:31:54;16.02;;;9.98;;
73919;SDS011;62266;53.348;-1.496;2023-04-23T14:34:38;14.35;;;10.00;;
73919;SDS011;62266;53.348;-1.496;2023-04-23T14:37:23;17.27;;;10.93;;
73919;SDS011;62266;53.348;-1.496;2023-04-23T14:40:07;15.55;;;10.20;;
73919;SDS011;62266;53.348;-1.496;2023-04-23T14:42:52;14.20;;;9.17;;
73919;SDS011;62266;53.348;-1.496;2023-04-23T14:45:36;16.10;;;10.50;;
73919;SDS011;62266;53.348;-1.496;2023-04-23T14:48:20;14.90;;;10.32;;
73919;SDS011;62266;53.348;-1.496;2023-04-23T14:51:04;16.23;;;10.20;;
73919;SDS011;62266;53.348;-1.496;2023-04-23T14:53:48;15.35;;;10.00;;
73919;SDS011;62266;53.348;-1.496;2023-04-23T14:56:33;15.27;;;10.03;;
73919;SDS011;62266;53.348;-1.496;2023-04-23T14:59:17;14.77;;;9.60;;
73919;SDS011;62266;53.348;-1.496;2023-04-23T15:02:01;13.48;;;9.50;;
73919;SDS011;62266;53.348;-1.496;2023-04-23T15:04:46;17.60;;;9.93;;
73919;SDS011;62266;53.348;-1.496;2023-04-23T15:07:30;14.52;;;10.02;;
73919;SDS011;62266;53.348;-1.496;2023-04-23T15:10:16;13.73;;;9.53;;
73919;SDS011;62266;53.348;-1.496;2023-04-23T15:13:01;14.65;;;8.93;;
73919;SDS011;62266;53.348;-1.496;2023-04-23T15:15:55;12.98;;;9.18;;
73919;SDS011;62266;53.348;-1.496;2023-04-23T15:18:45;12.38;;;8.55;;
73919;SDS011;62266;53.348;-1.496;2023-04-23T15:21:29;13.15;;;8.23;;
73919;SDS011;62266;53.348;-1.496;2023-04-23T15:24:18;10.57;;;7.80;;
73919;SDS011;62266;53.348;-1.496;2023-04-23T15:27:10;10.93;;;7.50;;
73919;SDS011;62266;53.348;-1.496;2023-04-23T15:29:59;9.90;;;7.55;;
73919;SDS011;62266;53.348;-1.496;2023-04-23T15:32:51;9.35;;;6.97;;
73919;SDS011;62266;53.348;-1.496;2023-04-23T15:35:39;8.95;;;7.05;;
73919;SDS011;62266;53.348;-1.496;2023-04-23T15:38:27;10.03;;;7.17;;
73919;SDS011;62266;53.348;-1.496;2023-04-23T15:41:11;11.43;;;7.50;;
73919;SDS011;62266;53.348;-1.496;2023-04-23T15:43:56;7.85;;;6.80;;
73919;SDS011;62266;53.348;-1.496;2023-04-23T15:46:40;6.57;;;5.80;;
73919;SDS011;62266;53.348;-1.496;2023-04-23T15:49:32;8.32;;;6.85;;
73919;SDS011;62266;53.348;-1.496;2023-04-23T15:52:16;10.03;;;7.33;;
73919;SDS011;62266;53.348;-1.496;2023-04-23T15:55:03;9.32;;;7.38;;
73919;SDS011;62266;53.348;-1.496;2023-04-23T15:57:50;9.95;;;7.85;;
73919;SDS011;62266;53.348;-1.496;2023-04-23T16:00:34;10.23;;;7.88;;
73919;SDS011;62266;53.348;-1.496;2023-04-23T16:03:21;10.43;;;7.07;;
73919;SDS011;62266;53.348;-1.496;2023-04-23T16:06:05;8.53;;;6.70;;
73919;SDS011;62266;53.348;-1.496;2023-04-23T16:08:49;8.93;;;6.55;;